sensor_id;sensor_type;location;lat;lon;timestamp;temperature;humidity
1992;DHT22;997;48.448;8.924;2023-03-04T11:24:43;2.80;99.90
1992;DHT22;997;48.448;8.924;2023-03-04T11:27:47;2.80;99.90
1992;DHT22;997;48.448;8.924;2023-03-04T11:32:54;3.10;99.90
1992;DHT22;997;48.448;8.924;2023-03-04T11:35:35;3.30;99.90
1992;DHT22;997;48.448;8.924;2023-03-04T11:38:09;3.50;99.90
1992;DHT22;997;48.448;8.924;2023-03-04T11:40:51;3.70;99.90
1992;DHT22;997;48.448;8.924;2023-03-04T11:43:45;3.80;99.90
1992;DHT22;997;48.448;8.924;2023-03-04T11:51:49;4.20;99.90
1992;DHT22;997;48.448;8.924;2023-03-04T12:06:23;4.30;99.90
1992;DHT22;997;48.448;8.924;2023-03-04T12:14:15;4.50;99.90
1992;DHT22;997;48.448;8.924;2023-03-04T12:17:13;4.50;99.90
1992;DHT22;997;48.448;8.924;2023-03-04T12:23:14;4.60;99.90
1992;DHT22;997;48.448;8.924;2023-03-04T12:28:25;4.80;99.90
1992;DHT22;997;48.448;8.924;2023-03-04T12:37:20;4.90;99.90
1992;DHT22;997;48.448;8.924;2023-03-04T12:47:49;5.40;99.90
1992;DHT22;997;48.448;8.924;2023-03-04T12:55:41;5.40;99.90
1992;DHT22;997;48.448;8.924;2023-03-04T12:58:17;5.30;99.90
1992;DHT22;997;48.448;8.924;2023-03-04T13:14:01;5.50;99.90
1992;DHT22;997;48.448;8.924;2023-03-04T13:18:59;5.70;99.90
1992;DHT22;997;48.448;8.924;2023-03-04T13:21:28;5.60;99.90
1992;DHT22;997;48.448;8.924;2023-03-04T13:23:56;5.60;99.90
1992;DHT22;997;48.448;8.924;2023-03-04T13:26:32;5.60;99.90
1992;DHT22;997;48.448;8.924;2023-03-04T13:32:10;5.50;99.90
1992;DHT22;997;48.448;8.924;2023-03-04T13:34:50;5.50;99.90
1992;DHT22;997;48.448;8.924;2023-03-04T13:37:35;5.70;99.90
1992;DHT22;997;48.448;8.924;2023-03-04T13:40:35;5.80;99.90
1992;DHT22;997;48.448;8.924;2023-03-04T13:43:24;6.00;99.90
1992;DHT22;997;48.448;8.924;2023-03-04T13:45:50;6.10;99.90
1992;DHT22;997;48.448;8.924;2023-03-04T13:48:32;6.10;99.90
1992;DHT22;997;48.448;8.924;2023-03-04T13:51:00;6.10;99.90
1992;DHT22;997;48.448;8.924;2023-03-04T14:06:56;6.80;99.90
1992;DHT22;997;48.448;8.924;2023-03-04T14:09:25;7.10;99.90
1992;DHT22;997;48.448;8.924;2023-03-04T14:12:03;7.30;99.90
1992;DHT22;997;48.448;8.924;2023-03-04T14:14:41;7.50;99.90
1992;DHT22;997;48.448;8.924;2023-03-04T14:17:16;7.80;99.90
1992;DHT22;997;48.448;8.924;2023-03-04T14:19:45;7.90;99.90
1992;DHT22;997;48.448;8.924;2023-03-04T14:25:25;8.10;99.90
1992;DHT22;997;48.448;8.924;2023-03-04T14:27:49;8.00;99.90
1992;DHT22;997;48.448;8.924;2023-03-04T14:30:19;7.90;99.90
1992;DHT22;997;48.448;8.924;2023-03-04T14:32:45;8.10;99.90
1992;DHT22;997;48.448;8.924;2023-03-04T14:35:23;8.30;99.90
1992;DHT22;997;48.448;8.924;2023-03-04T14:38:00;8.50;99.90
1992;DHT22;997;48.448;8.924;2023-03-04T14:40:40;8.80;99.90
1992;DHT22;997;48.448;8.924;2023-03-04T14:43:18;9.10;99.90
1992;DHT22;997;48.448;8.924;2023-03-04T14:45:53;9.30;99.90
1992;DHT22;997;48.448;8.924;2023-03-04T14:48:22;9.20;99.90
1992;DHT22;997;48.448;8.924;2023-03-04T14:50:51;9.30;99.90
1992;DHT22;997;48.448;8.924;2023-03-04T14:53:19;9.20;99.90
1992;DHT22;997;48.448;8.924;2023-03-04T14:58:32;8.50;99.90
1992;DHT22;997;48.448;8.924;2023-03-04T15:01:06;8.10;99.90
1992;DHT22;997;48.448;8.924;2023-03-04T15:03:33;8.00;99.90
1992;DHT22;997;48.448;8.924;2023-03-04T15:06:17;8.30;99.90
1992;DHT22;997;48.448;8.924;2023-03-04T15:08:44;8.30;99.90
1992;DHT22;997;48.448;8.924;2023-03-04T15:11:21;8.40;99.90
1992;DHT22;997;48.448;8.924;2023-03-04T15:13:49;8.40;99.90
1992;DHT22;997;48.448;8.924;2023-03-04T15:16:18;8.10;99.90
1992;DHT22;997;48.448;8.924;2023-03-04T15:19:23;7.70;99.90
1992;DHT22;997;48.448;8.924;2023-03-04T15:21:50;7.20;99.90
1992;DHT22;997;48.448;8.924;2023-03-04T15:24:16;6.80;99.90
1992;DHT22;997;48.448;8.924;2023-03-04T15:26:42;6.50;99.90
1992;DHT22;997;48.448;8.924;2023-03-04T15:29:16;6.40;99.90
1992;DHT22;997;48.448;8.924;2023-03-04T15:31:43;6.40;99.90
1992;DHT22;997;48.448;8.924;2023-03-04T15:34:14;6.20;99.90
1992;DHT22;997;48.448;8.924;2023-03-04T15:36:45;6.00;99.90
1992;DHT22;997;48.448;8.924;2023-03-04T15:39:13;5.90;99.90
1992;DHT22;997;48.448;8.924;2023-03-04T15:41:39;5.70;99.90
1992;DHT22;997;48.448;8.924;2023-03-04T15:44:05;5.60;99.90
1992;DHT22;997;48.448;8.924;2023-03-04T15:46:31;5.50;99.90
1992;DHT22;997;48.448;8.924;2023-03-04T15:48:57;5.40;99.90
1992;DHT22;997;48.448;8.924;2023-03-04T15:51:22;5.40;99.90
1992;DHT22;997;48.448;8.924;2023-03-04T15:53:54;5.40;99.90
1992;DHT22;997;48.448;8.924;2023-03-04T15:56:23;5.30;99.90
1992;DHT22;997;48.448;8.924;2023-03-04T15:59:11;5.20;99.90
1992;DHT22;997;48.448;8.924;2023-03-04T16:01:38;5.10;99.90
1992;DHT22;997;48.448;8.924;2023-03-04T16:04:04;4.70;99.90
1992;DHT22;997;48.448;8.924;2023-03-04T16:06:31;4.60;99.90
1992;DHT22;997;48.448;8.924;2023-03-04T16:08:58;4.50;99.90
1992;DHT22;997;48.448;8.924;2023-03-04T16:11:26;4.30;99.90
1992;DHT22;997;48.448;8.924;2023-03-04T16:13:52;4.20;99.90
1992;DHT22;997;48.448;8.924;2023-03-04T16:16:19;4.00;99.90
1992;DHT22;997;48.448;8.924;2023-03-04T16:18:45;3.70;99.90
1992;DHT22;997;48.448;8.924;2023-03-04T16:21:14;3.80;99.90
1992;DHT22;997;48.448;8.924;2023-03-04T16:23:42;3.90;99.90
1992;DHT22;997;48.448;8.924;2023-03-04T16:26:16;3.90;99.90
1992;DHT22;997;48.448;8.924;2023-03-04T16:28:42;3.60;99.90
1992;DHT22;997;48.448;8.924;2023-03-04T16:31:12;3.50;99.90
1992;DHT22;997;48.448;8.924;2023-03-04T16:33:38;3.40;99.90
1992;DHT22;997;48.448;8.924;2023-03-04T16:36:17;3.40;99.90
1992;DHT22;997;48.448;8.924;2023-03-04T16:38:43;3.50;99.90
1992;DHT22;997;48.448;8.924;2023-03-04T16:41:12;3.50;99.90
1992;DHT22;997;48.448;8.924;2023-03-04T16:43:38;3.60;99.90
1992;DHT22;997;48.448;8.924;2023-03-04T16:46:04;3.60;99.90
1992;DHT22;997;48.448;8.924;2023-03-04T16:48:30;3.70;99.90
1992;DHT22;997;48.448;8.924;2023-03-04T16:50:56;3.60;99.90
1992;DHT22;997;48.448;8.924;2023-03-04T16:53:25;3.70;99.90
1992;DHT22;997;48.448;8.924;2023-03-04T16:55:53;3.50;99.90
1992;DHT22;997;48.448;8.924;2023-03-04T16:58:19;3.50;99.90
1992;DHT22;997;48.448;8.924;2023-03-04T17:00:44;3.60;99.90
1992;DHT22;997;48.448;8.924;2023-03-04T17:03:10;3.50;99.90
1992;DHT22;997;48.448;8.924;2023-03-04T17:05:36;3.40;99.90
1992;DHT22;997;48.448;8.924;2023-03-04T17:08:02;3.20;99.90
1992;DHT22;997;48.448;8.924;2023-03-04T17:10:29;3.20;99.90
1992;DHT22;997;48.448;8.924;2023-03-04T17:13:16;3.20;99.90
1992;DHT22;997;48.448;8.924;2023-03-04T17:19:00;3.20;99.90
1992;DHT22;997;48.448;8.924;2023-03-04T17:21:26;3.00;99.90
1992;DHT22;997;48.448;8.924;2023-03-04T17:23:53;3.00;99.90
1992;DHT22;997;48.448;8.924;2023-03-04T17:26:19;3.00;99.90
1992;DHT22;997;48.448;8.924;2023-03-04T17:28:47;3.10;99.90
1992;DHT22;997;48.448;8.924;2023-03-04T17:31:16;3.20;99.90
1992;DHT22;997;48.448;8.924;2023-03-04T17:33:42;3.30;99.90
1992;DHT22;997;48.448;8.924;2023-03-04T17:36:10;3.30;99.90
1992;DHT22;997;48.448;8.924;2023-03-04T17:38:37;3.30;99.90
1992;DHT22;997;48.448;8.924;2023-03-04T17:41:05;3.30;99.90
1992;DHT22;997;48.448;8.924;2023-03-04T17:43:31;3.20;99.90
1992;DHT22;997;48.448;8.924;2023-03-04T17:46:04;3.20;99.90
1992;DHT22;997;48.448;8.924;2023-03-04T17:48:31;3.30;99.90
1992;DHT22;997;48.448;8.924;2023-03-04T17:50:57;3.40;99.90
1992;DHT22;997;48.448;8.924;2023-03-04T17:53:23;3.50;99.90
1992;DHT22;997;48.448;8.924;2023-03-04T17:55:54;3.50;99.90
1992;DHT22;997;48.448;8.924;2023-03-04T17:58:20;3.20;99.90
1992;DHT22;997;48.448;8.924;2023-03-04T18:00:46;3.30;99.90
1992;DHT22;997;48.448;8.924;2023-03-04T18:03:13;3.20;99.90
1992;DHT22;997;48.448;8.924;2023-03-04T18:05:39;3.30;99.90
1992;DHT22;997;48.448;8.924;2023-03-04T18:08:05;3.50;99.90
1992;DHT22;997;48.448;8.924;2023-03-04T18:10:31;3.60;99.90
1992;DHT22;997;48.448;8.924;2023-03-04T18:12:57;3.60;99.90
1992;DHT22;997;48.448;8.924;2023-03-04T18:15:23;3.60;99.90
1992;DHT22;997;48.448;8.924;2023-03-04T18:17:49;3.70;99.90
1992;DHT22;997;48.448;8.924;2023-03-04T18:20:15;3.70;99.90
1992;DHT22;997;48.448;8.924;2023-03-04T18:22:41;3.60;99.90
1992;DHT22;997;48.448;8.924;2023-03-04T18:25:07;3.50;99.90
1992;DHT22;997;48.448;8.924;2023-03-04T18:27:35;3.50;99.90
1992;DHT22;997;48.448;8.924;2023-03-04T18:30:05;3.40;99.90
1992;DHT22;997;48.448;8.924;2023-03-04T18:32:31;3.40;99.90
1992;DHT22;997;48.448;8.924;2023-03-04T18:34:57;3.50;99.90
1992;DHT22;997;48.448;8.924;2023-03-04T18:37:22;3.60;99.90
1992;DHT22;997;48.448;8.924;2023-03-04T18:39:48;3.60;99.90
1992;DHT22;997;48.448;8.924;2023-03-04T18:42:14;3.70;99.90
1992;DHT22;997;48.448;8.924;2023-03-04T18:44:40;3.70;99.90
1992;DHT22;997;48.448;8.924;2023-03-04T18:47:05;3.80;99.90
1992;DHT22;997;48.448;8.924;2023-03-04T18:49:31;3.80;99.90
1992;DHT22;997;48.448;8.924;2023-03-04T18:51:57;3.80;99.90
1992;DHT22;997;48.448;8.924;2023-03-04T18:54:23;3.80;99.90
1992;DHT22;997;48.448;8.924;2023-03-04T18:56:53;3.90;99.90
1992;DHT22;997;48.448;8.924;2023-03-04T19:01:48;4.00;99.90
1992;DHT22;997;48.448;8.924;2023-03-04T19:04:17;4.10;99.90
1992;DHT22;997;48.448;8.924;2023-03-04T19:06:43;4.00;99.90
1992;DHT22;997;48.448;8.924;2023-03-04T19:09:09;4.10;99.90
1992;DHT22;997;48.448;8.924;2023-03-04T19:11:35;4.00;99.90
1992;DHT22;997;48.448;8.924;2023-03-04T19:14:01;4.10;99.90
1992;DHT22;997;48.448;8.924;2023-03-04T19:16:27;4.10;99.90
1992;DHT22;997;48.448;8.924;2023-03-04T19:18:52;4.20;99.90
1992;DHT22;997;48.448;8.924;2023-03-04T19:21:18;4.20;99.90
1992;DHT22;997;48.448;8.924;2023-03-04T19:23:44;4.20;99.90
1992;DHT22;997;48.448;8.924;2023-03-04T19:26:09;4.20;99.90
1992;DHT22;997;48.448;8.924;2023-03-04T19:28:38;4.10;99.90
1992;DHT22;997;48.448;8.924;2023-03-04T19:31:05;4.10;99.90
1992;DHT22;997;48.448;8.924;2023-03-04T19:33:33;4.10;99.90
1992;DHT22;997;48.448;8.924;2023-03-04T19:36:01;4.00;99.90
1992;DHT22;997;48.448;8.924;2023-03-04T19:38:29;4.10;99.90
1992;DHT22;997;48.448;8.924;2023-03-04T19:40:55;4.00;99.90
1992;DHT22;997;48.448;8.924;2023-03-04T19:43:20;4.00;99.90
1992;DHT22;997;48.448;8.924;2023-03-04T19:45:56;4.10;99.90
1992;DHT22;997;48.448;8.924;2023-03-04T19:48:24;4.10;99.90
1992;DHT22;997;48.448;8.924;2023-03-04T19:50:50;4.00;99.90
1992;DHT22;997;48.448;8.924;2023-03-04T19:53:15;4.00;99.90
1992;DHT22;997;48.448;8.924;2023-03-04T19:55:47;4.10;99.90
1992;DHT22;997;48.448;8.924;2023-03-04T19:58:18;4.10;99.90
1992;DHT22;997;48.448;8.924;2023-03-04T20:00:44;4.10;99.90
1992;DHT22;997;48.448;8.924;2023-03-04T20:03:11;4.10;99.90
1992;DHT22;997;48.448;8.924;2023-03-04T20:05:37;4.10;99.90
1992;DHT22;997;48.448;8.924;2023-03-04T20:08:03;4.00;99.90
1992;DHT22;997;48.448;8.924;2023-03-04T20:10:34;4.00;99.90
1992;DHT22;997;48.448;8.924;2023-03-04T20:13:04;4.00;99.90
1992;DHT22;997;48.448;8.924;2023-03-04T20:15:30;4.00;99.90
1992;DHT22;997;48.448;8.924;2023-03-04T20:17:55;4.00;99.90
1992;DHT22;997;48.448;8.924;2023-03-04T20:20:21;3.90;99.90
1992;DHT22;997;48.448;8.924;2023-03-04T20:22:49;3.90;99.90
1992;DHT22;997;48.448;8.924;2023-03-04T20:25:15;3.90;99.90
1992;DHT22;997;48.448;8.924;2023-03-04T20:27:41;3.90;99.90
1992;DHT22;997;48.448;8.924;2023-03-04T20:30:07;3.80;99.90
1992;DHT22;997;48.448;8.924;2023-03-04T20:32:33;3.80;99.90
1992;DHT22;997;48.448;8.924;2023-03-04T20:34:59;3.80;99.90
1992;DHT22;997;48.448;8.924;2023-03-04T20:37:24;3.80;99.90
1992;DHT22;997;48.448;8.924;2023-03-04T20:39:50;3.80;99.90
1992;DHT22;997;48.448;8.924;2023-03-04T20:42:16;3.80;99.90
1992;DHT22;997;48.448;8.924;2023-03-04T20:44:42;3.80;99.90
1992;DHT22;997;48.448;8.924;2023-03-04T20:47:07;3.70;99.90
1992;DHT22;997;48.448;8.924;2023-03-04T20:49:33;3.80;99.90
1992;DHT22;997;48.448;8.924;2023-03-04T20:52:01;3.80;99.90
1992;DHT22;997;48.448;8.924;2023-03-04T20:54:36;3.80;99.90
1992;DHT22;997;48.448;8.924;2023-03-04T20:57:03;3.80;99.90
1992;DHT22;997;48.448;8.924;2023-03-04T20:59:33;3.80;99.90
1992;DHT22;997;48.448;8.924;2023-03-04T21:01:59;3.90;99.90
1992;DHT22;997;48.448;8.924;2023-03-04T21:04:25;3.90;99.90
1992;DHT22;997;48.448;8.924;2023-03-04T21:06:51;4.00;99.90
1992;DHT22;997;48.448;8.924;2023-03-04T21:09:20;4.00;99.90
1992;DHT22;997;48.448;8.924;2023-03-04T21:11:46;3.90;99.90
1992;DHT22;997;48.448;8.924;2023-03-04T21:14:27;3.90;99.90
1992;DHT22;997;48.448;8.924;2023-03-04T21:16:54;3.90;99.90
1992;DHT22;997;48.448;8.924;2023-03-04T21:19:29;3.90;99.90
1992;DHT22;997;48.448;8.924;2023-03-04T21:21:57;3.90;99.90
1992;DHT22;997;48.448;8.924;2023-03-04T21:24:25;3.90;99.90
1992;DHT22;997;48.448;8.924;2023-03-04T21:26:51;3.80;99.90
1992;DHT22;997;48.448;8.924;2023-03-04T21:29:18;3.80;99.90
1992;DHT22;997;48.448;8.924;2023-03-04T21:31:48;3.70;99.90
1992;DHT22;997;48.448;8.924;2023-03-04T21:34:35;3.70;99.90
1992;DHT22;997;48.448;8.924;2023-03-04T21:37:03;3.80;99.90
1992;DHT22;997;48.448;8.924;2023-03-04T21:39:29;3.80;99.90
1992;DHT22;997;48.448;8.924;2023-03-04T21:41:57;3.80;99.90
1992;DHT22;997;48.448;8.924;2023-03-04T21:44:24;3.80;99.90
1992;DHT22;997;48.448;8.924;2023-03-04T21:46:49;3.90;99.90
1992;DHT22;997;48.448;8.924;2023-03-04T21:49:15;3.80;99.90
1992;DHT22;997;48.448;8.924;2023-03-04T21:51:42;3.80;99.90
1992;DHT22;997;48.448;8.924;2023-03-04T21:54:11;3.70;99.90
1992;DHT22;997;48.448;8.924;2023-03-04T21:56:37;3.70;99.90
1992;DHT22;997;48.448;8.924;2023-03-04T21:59:04;3.70;99.90
1992;DHT22;997;48.448;8.924;2023-03-04T22:01:31;3.60;99.90
1992;DHT22;997;48.448;8.924;2023-03-04T22:03:58;3.60;99.90
1992;DHT22;997;48.448;8.924;2023-03-04T22:06:24;3.60;99.90
1992;DHT22;997;48.448;8.924;2023-03-04T22:08:52;3.60;99.90
1992;DHT22;997;48.448;8.924;2023-03-04T22:11:20;3.50;99.90
1992;DHT22;997;48.448;8.924;2023-03-04T22:13:47;3.50;99.90
1992;DHT22;997;48.448;8.924;2023-03-04T22:16:14;3.60;99.90
1992;DHT22;997;48.448;8.924;2023-03-04T22:18:40;3.60;99.90
1992;DHT22;997;48.448;8.924;2023-03-04T22:21:11;3.60;99.90
1992;DHT22;997;48.448;8.924;2023-03-04T22:23:37;3.50;99.90
1992;DHT22;997;48.448;8.924;2023-03-04T22:26:14;3.40;99.90
1992;DHT22;997;48.448;8.924;2023-03-04T22:28:41;3.20;99.90
